Nearby METAR Reports

METAR is the scheduled surface weather observation taken hourly at civil and military airport locations.

METAR is an acronym from the French language and roughly translates as Aviation Routine Weather Report.

 

EGPL - Benbecula Island, United Kingdom
Distance from station: WNW 41mi, 66km
Updated: 23/06/2017 15:50
Nearby showers, Mostly cloudy
Nearby showers, Mostly cloudy
 Wind from WSW
Wind: WSW 24 mph , 39 km/h
Temperature: 14°C
Dew Point: 8°C
Humidity: 67%
Barometer: 1005 hPa
Summary: Nearby Showers
Clouds: Mostly cloudy
Visibility: 6 miles , 10 km
Cloud details: Partly cloudy 792 m
Mostly cloudy 1372 m
2017/06/23 14:50 EGPL 231450Z 24021KT 9999 VCSH SCT026 BKN045 14/08 Q1005
EGPU - Tiree Island, United Kingdom
Distance from station: SSW 56mi, 90km
Updated: 23/06/2017 15:50
Light rain, Mostly cloudy
Light rain, Mostly cloudy
 Wind from WSW
Wind: WSW 20 mph , 31 km/h
Temperature: 13°C
Dew Point: 9°C
Humidity: 77%
Barometer: 1007 hPa
Summary: Light rain
Clouds: Mostly cloudy
Visibility: 6 miles , 10 km
Cloud details: Few Clouds 579 m
Partly cloudy 732 m
Mostly cloudy 1280 m
2017/06/23 14:50 EGPU 231450Z 25017KT 9999 -RA FEW019 SCT024 BKN042 13/09 Q1007
 
EGEO - Oban Airport, United Kingdom
Distance from station: SE 65mi, 105km
Updated: 23/06/2017 15:50
Partly cloudy
Partly cloudy
 Wind from W
Wind: W 14 mph , 22 km/h
Temperature: 15°C
Dew Point: 10°C
Humidity: 72%
Barometer: 1008 hPa
Clouds: Partly cloudy
Visibility: 6 miles , 10 km
Cloud details: Few Clouds 732 m
Partly cloudy 1158 m
2017/06/23 14:50 EGEO 231450Z 27012KT 9999 FEW024 SCT038 15/10 Q1008
EGPO - Stornoway, United Kingdom
Distance from station: 0 66mi, 106km
Updated: 23/06/2017 15:50
Partly cloudy
Partly cloudy
 Wind from WSW
Wind: WSW 26 mph , 43 km/h
Temperature: 15°C
Dew Point: 7°C
Humidity: 59%
Barometer: 1003 hPa
Clouds: Partly cloudy
Visibility: 6 miles , 10 km
Cloud details: Few Clouds 762 m
Partly cloudy 1158 m
2017/06/23 14:50 EGPO 231450Z 24023KT 9999 FEW025 SCT038 15/07 Q1003
 
EGPE - Inverness/Dalcro, United Kingdom
Distance from station: ENE 88mi, 141km
Updated: 23/06/2017 15:50
Few Clouds
Few Clouds
 Wind from W
Wind: W 22 mph , 35 km/h
Temperature: 15°C
Dew Point: 7°C
Humidity: 59%
Barometer: 1004 hPa
Clouds: Few Clouds
Visibility: 6 miles , 10 km
Cloud details: Few Clouds 1463 m
2017/06/23 14:50 EGPE 231450Z 26019KT 9999 FEW048 15/07 Q1004
EGQA - Tain Range (saws, United Kingdom
Distance from station: ENE 97mi, 156km
Updated: 23/06/2017 10:50
NOT Current
Nearby showers, Partly cloudy
Nearby showers, Partly cloudy
 Wind from WSW
Wind: WSW 23 mph , 37 km/h
Summary: Nearby Showers
Clouds: Partly cloudy
Visibility: 6 miles , 10 km
Cloud details: Few Clouds 610 m
Partly cloudy 1067 m
2017/06/23 09:50 EGQA 230950Z 25020KT 9999 VCSH FEW020 SCT035 17/// Q1000 BLU
 
EGQK - Kinloss Raf, United Kingdom
Distance from station: ENE 107mi, 171km
Updated: 23/06/2017 15:50
Few Clouds
Few Clouds
 Wind from W
Wind: W 23 mph , 37 km/h
Temperature: 18°C
Dew Point: 8°C
Humidity: 52%
Barometer: 1004 hPa
Clouds: Few Clouds
Visibility: 6 miles , 10 km
Cloud details: Few Clouds 1524 m
2017/06/23 14:50 EGQK 231450Z AUTO 26020KT 9999 FEW050/// 18/08 Q1004
EGPI - Islay/Port Ellen, United Kingdom
Distance from station: S 110mi, 177km
Updated: 23/06/2017 15:50
Mostly cloudy
Mostly cloudy
 Wind from W
Wind: W 14 mph , 22 km/h
Temperature: 15°C
Dew Point: 10°C
Humidity: 72%
Barometer: 1009 hPa
Clouds: Mostly cloudy
Visibility: 6 miles , 10 km
Cloud details: Few Clouds 762 m
Mostly cloudy 1158 m
2017/06/23 14:50 EGPI 231450Z 27012KT 9999 FEW025 BKN038 15/10 Q1009
 
EGQS - Lossiemouth Raf, United Kingdom
Distance from station: ENE 117mi, 188km
Updated: 23/06/2017 15:50
Clear
Clear
 Wind from W
Wind: W 18 mph , 30 km/h, Gust: 31 mph , 50 km/h
Temperature: 16°C
Dew Point: 7°C
Humidity: 55%
Barometer: 1004 hPa
Summary: Clear
Visibility: greater than 7 miles , 10 km
2017/06/23 14:50 EGQS 231450Z 28016G27KT CAVOK 16/07 Q1004 BLU NOSIG
EGPF - Glasgow Airport, United Kingdom
Distance from station: SE 121mi, 195km
Updated: 23/06/2017 15:50
Mostly cloudy
Mostly cloudy
 Wind from W
Wind: W 20 mph , 31 km/h
Temperature: 17°C
Dew Point: 10°C
Humidity: 64%
Barometer: 1008 hPa
Clouds: Mostly cloudy
Visibility: 6 miles , 10 km
Cloud details: Mostly cloudy 853 m
2017/06/23 14:50 EGPF 231450Z AUTO 26017KT 9999 BKN028 17/10 Q1008
 
EGEC - Campbeltown, United Kingdom
Distance from station: SSE 129mi, 207km
Updated: 23/06/2017 15:50
Mostly cloudy
Mostly cloudy
 Wind from WNW
Wind: WNW 13 mph , 20 km/h
Temperature: 14°C
Dew Point: 10°C
Humidity: 77%
Barometer: 1009 hPa
Clouds: Mostly cloudy
Visibility: 6 miles , 10 km
Cloud details: Mostly cloudy 853 m
2017/06/23 14:50 EGEC 231450Z 30011KT 9999 BKN028 14/10 Q1009
EGPN - Dundee/Riverside, United Kingdom
Distance from station: ESE 137mi, 221km
Updated: 23/06/2017 15:50
Few Clouds
Few Clouds
 Wind from W
Wind: W 22 mph , 35 km/h
Temperature: 18°C
Dew Point: 12°C
Humidity: 68%
Barometer: 1005 hPa
Clouds: Few Clouds
Visibility: 6 miles , 10 km
Cloud details: Few Clouds 1219 m
2017/06/23 14:50 EGPN 231450Z 26019KT 9999 FEW040 18/12 Q1005
 
EGPK - Prestwick(Civ/Na, United Kingdom
Distance from station: SSE 139mi, 224km
Updated: 23/06/2017 15:50
Partly cloudy
Partly cloudy
 Wind from WNW
Wind: WNW 15 mph , 24 km/h
Temperature: 16°C
Dew Point: 10°C
Humidity: 68%
Barometer: 1009 hPa
Clouds: Partly cloudy
Visibility: 6 miles , 10 km
Cloud details: Partly cloudy 853 m
2017/06/23 14:50 EGPK 231450Z 29013KT 9999 SCT028 16/10 Q1009
EGQL - Leuchars Raf, United Kingdom
Distance from station: ESE 145mi, 233km
Updated: 23/06/2017 15:50
Few Clouds
Few Clouds
 Wind from W
Wind: W 22 mph , 35 km/h
Temperature: 19°C
Dew Point: 9°C
Humidity: 52%
Barometer: 1005 hPa
Clouds: Few Clouds
Visibility: 6 miles , 10 km
Cloud details: Few Clouds 1311 m
2017/06/23 14:50 EGQL 231450Z 27019KT 9999 FEW043 19/09 Q1005 BLU
 
EGPH - Edinburgh Airpor, United Kingdom
Distance from station: SE 145mi, 234km
Updated: 23/06/2017 15:50
Partly cloudy
Partly cloudy
 Wind from W
Wind: W 14 mph , 22 km/h
Temperature: 17°C
Dew Point: 10°C
Humidity: 64%
Barometer: 1007 hPa
Clouds: Partly cloudy
Visibility: 6 miles , 10 km
Cloud details: Partly cloudy 914 m
2017/06/23 14:50 EGPH 231450Z 27012KT 240V310 9999 SCT030 17/10 Q1007
EGPC - Wick, United Kingdom
Distance from station: NE 146mi, 234km
Updated: 23/06/2017 15:50
Partly cloudy
Partly cloudy
 Wind from W
Wind: W 23 mph , 37 km/h
Temperature: 16°C
Dew Point: 6°C
Humidity: 52%
Barometer: 1002 hPa
Clouds: Partly cloudy
Visibility: 6 miles , 10 km
Cloud details: Partly cloudy 1494 m
2017/06/23 14:50 EGPC 231450Z 26020KT 9999 SCT049 16/06 Q1002

-

free counters
QR Code Twitter Scottish Weather Network UK Weather Network
Argyll House B & B

Argyll House B & B is situated in North West Skye and is the perfect base to see all that the Isle of Skye has to offer.
Bookings been taken for 2017.